Time;durP1;ratioP1;P1;durP2;ratioP2;P2;SDS_P1;SDS_P2;PMS_P1;PMS_P2;Temp;Humidity;BMP_temperature;BMP_pressure;BME280_temperature;BME280_humidity;BME280_pressure;Samples;Min_cycle;Max_cycle;Signal;HPM_P1;HPM_P2
2023/01/12 00:02:06;;;;;;;15.23;3.00;;;7.50;99.90;;;;;;5051710;28;20052;-65
2023/01/12 00:04:32;;;;;;;19.80;4.85;;;7.50;99.90;;;;;;5052629;28;20041;-65
2023/01/12 00:07:01;;;;;;;22.13;5.32;;;7.50;99.90;;;;;;5052531;28;20470;-65
2023/01/12 00:09:27;;;;;;;23.52;6.95;;;7.50;99.90;;;;;;5051422;28;20064;-65
2023/01/12 00:11:53;;;;;;;27.25;5.03;;;7.50;99.90;;;;;;5052049;28;20134;-65
2023/01/12 00:14:18;;;;;;;16.70;4.97;;;7.50;99.90;;;;;;5053171;28;20037;-66
2023/01/12 00:16:44;;;;;;;21.20;6.28;;;7.50;99.90;;;;;;5034698;28;20079;-66
2023/01/12 00:19:18;;;;;;;21.98;6.15;;;7.60;99.90;;;;;;5053201;28;20041;-66
2023/01/12 00:24:17;;;;;;;17.98;4.45;;;7.70;99.90;;;;;;5052482;28;20061;-66
2023/01/12 00:26:43;;;;;;;28.55;5.85;;;7.70;99.90;;;;;;5052979;28;20393;-66
2023/01/12 00:29:09;;;;;;;25.40;6.70;;;7.70;99.90;;;;;;5051644;28;20080;-66
2023/01/12 00:31:34;;;;;;;22.77;5.55;;;7.70;99.90;;;;;;5051554;28;20072;-66
2023/01/12 00:34:00;;;;;;;25.77;6.30;;;7.70;99.90;;;;;;5051946;28;20399;-66
2023/01/12 00:36:25;;;;;;;25.35;5.22;;;7.70;99.90;;;;;;5052648;28;20443;-66
2023/01/12 00:38:51;;;;;;;27.98;6.13;;;7.70;99.90;;;;;;5052310;28;20083;-66
2023/01/12 00:46:48;;;;;;;;;;;7.70;99.90;;;;;;5053498;28;20535;-66
2023/01/12 00:49:14;;;;;;;28.00;5.10;;;7.70;99.90;;;;;;5051533;28;20011;-66
2023/01/12 00:51:40;;;;;;;21.08;4.38;;;7.70;99.90;;;;;;5033863;28;20090;-66
2023/01/12 00:54:07;;;;;;;17.88;4.93;;;7.70;99.90;;;;;;5052867;28;20367;-66
2023/01/12 00:56:37;;;;;;;12.40;4.35;;;7.70;99.90;;;;;;5051227;28;20049;-66
2023/01/12 00:59:04;;;;;;;16.52;4.00;;;7.60;99.90;;;;;;5050726;28;20056;-66
2023/01/12 01:01:31;;;;;;;16.33;4.22;;;7.60;99.90;;;;;;5051566;28;20037;-66
2023/01/12 01:03:57;;;;;;;14.75;3.65;;;7.60;99.90;;;;;;5050939;28;20041;-66
2023/01/12 01:06:23;;;;;;;17.85;4.38;;;7.60;99.90;;;;;;5050388;28;20045;-66
2023/01/12 01:08:49;;;;;;;16.35;4.50;;;7.60;99.90;;;;;;5034871;28;20029;-66
2023/01/12 01:11:15;;;;;;;14.18;4.35;;;7.60;99.90;;;;;;5050771;28;20072;-66
2023/01/12 01:13:44;;;;;;;18.20;3.90;;;7.70;99.90;;;;;;5051865;28;20068;-66
2023/01/12 01:16:12;;;;;;;20.20;4.93;;;7.70;99.90;;;;;;5050943;28;20037;-66
2023/01/12 01:18:38;;;;;;;11.75;4.25;;;7.70;99.90;;;;;;5050598;28;20482;-66
2023/01/12 01:21:06;;;;;;;16.25;3.35;;;7.70;99.90;;;;;;5067033;28;20053;-66
2023/01/12 01:23:34;;;;;;;19.95;4.30;;;7.70;99.90;;;;;;5051193;28;20053;-66
2023/01/12 01:26:08;;;;;;;16.65;4.57;;;7.70;99.90;;;;;;5050271;28;20064;-65
2023/01/12 01:28:35;;;;;;;17.20;5.05;;;7.70;99.90;;;;;;5052031;28;20083;-66
2023/01/12 01:31:13;;;;;;;13.80;4.63;;;7.70;99.90;;;;;;5051389;28;20371;-65
2023/01/12 01:33:39;;;;;;;15.07;3.83;;;7.80;99.90;;;;;;5050055;28;20041;-65
2023/01/12 01:36:05;;;;;;;17.58;4.53;;;7.70;99.90;;;;;;5051977;28;20506;-65
2023/01/12 01:38:31;;;;;;;18.17;4.55;;;7.80;99.90;;;;;;5034469;28;20069;-65
2023/01/12 01:40:58;;;;;;;15.95;3.63;;;7.80;99.90;;;;;;5051351;28;20041;-64
2023/01/12 01:43:25;;;;;;;19.60;4.50;;;7.80;99.90;;;;;;5050711;28;20045;-64
2023/01/12 01:46:02;;;;;;;24.20;4.68;;;7.80;99.90;;;;;;5050397;28;20548;-64
2023/01/12 01:48:32;;;;;;;19.25;4.32;;;7.80;99.90;;;;;;5051276;28;20041;-64
2023/01/12 01:51:03;;;;;;;19.42;4.75;;;7.90;99.90;;;;;;5067294;28;20091;-64
2023/01/12 01:53:33;;;;;;;22.83;5.32;;;7.90;99.90;;;;;;5050825;28;20581;-64
2023/01/12 01:56:11;;;;;;;18.27;4.65;;;7.90;99.90;;;;;;5050247;28;20048;-64
2023/01/12 01:58:40;;;;;;;17.38;4.82;;;7.90;99.90;;;;;;5051638;28;20084;-64
2023/01/12 02:01:06;;;;;;;20.10;4.90;;;8.00;99.90;;;;;;5033170;28;20107;-64
2023/01/12 02:03:33;;;;;;;15.75;4.20;;;8.00;99.90;;;;;;5050848;28;20045;-64
2023/01/12 02:05:59;;;;;;;19.52;4.13;;;8.00;99.90;;;;;;5034012;28;20045;-64
2023/01/12 02:08:32;;;;;;;16.67;4.35;;;8.00;99.90;;;;;;5049784;28;20393;-65
2023/01/12 02:11:00;;;;;;;28.92;6.18;;;8.00;99.90;;;;;;5051897;28;20045;-64
2023/01/12 02:16:27;;;;;;;25.27;4.55;;;8.10;99.90;;;;;;5050893;28;20494;-65
2023/01/12 02:19:19;;;;;;;21.00;5.55;;;8.20;99.90;;;;;;5050466;28;20100;-65
2023/01/12 02:22:03;;;;;;;15.15;4.30;;;8.20;99.90;;;;;;5042096;28;20409;-65
2023/01/12 02:24:44;;;;;;;25.33;5.78;;;8.20;99.90;;;;;;5033768;28;20481;-65
2023/01/12 02:27:31;;;;;;;20.55;5.22;;;8.20;99.90;;;;;;5051449;28;20072;-65
2023/01/12 02:30:15;;;;;;;23.73;5.25;;;8.10;99.90;;;;;;5050982;28;20037;-65
2023/01/12 02:32:49;;;;;;;25.17;7.20;;;8.10;99.90;;;;;;5050157;28;20041;-65
2023/01/12 02:35:31;;;;;;;22.75;4.47;;;8.20;99.90;;;;;;5050114;28;20060;-65
2023/01/12 02:38:25;;;;;;;18.35;4.78;;;8.20;99.90;;;;;;5049735;28;20155;-65
2023/01/12 02:41:08;;;;;;;19.00;5.78;;;8.20;99.90;;;;;;5050126;28;20555;-65
2023/01/12 02:43:35;;;;;;;27.90;6.30;;;8.20;99.90;;;;;;5049612;28;20056;-65
2023/01/12 02:46:30;;;;;;;20.85;5.63;;;8.20;99.90;;;;;;5050300;28;20490;-65
2023/01/12 02:49:04;;;;;;;17.67;5.47;;;8.30;99.90;;;;;;5051211;28;20501;-65
2023/01/12 02:51:59;;;;;;;20.58;5.28;;;8.20;99.90;;;;;;5049684;28;20371;-65
2023/01/12 02:54:26;;;;;;;25.63;6.40;;;8.30;99.90;;;;;;5050016;28;20047;-65
2023/01/12 02:56:54;;;;;;;23.67;6.22;;;8.30;99.90;;;;;;5049963;28;20449;-65
2023/01/12 02:59:27;;;;;;;22.33;6.22;;;8.30;99.90;;;;;;5050774;28;20064;-65
2023/01/12 03:01:58;;;;;;;21.90;5.40;;;8.30;99.90;;;;;;5051205;28;20056;-65
2023/01/12 03:04:24;;;;;;;23.60;6.45;;;8.30;99.90;;;;;;5053983;28;20775;-65
2023/01/12 03:06:50;;;;;;;24.67;6.50;;;8.30;99.90;;;;;;5054581;28;20111;-65
2023/01/12 03:09:17;;;;;;;23.17;6.70;;;8.40;99.90;;;;;;5053220;28;20045;-64
2023/01/12 03:11:47;;;;;;;25.02;6.65;;;8.30;99.90;;;;;;5052427;28;20044;-65
2023/01/12 03:14:15;;;;;;;26.52;6.55;;;8.40;99.90;;;;;;5054467;28;20045;-65
2023/01/12 03:16:40;;;;;;;19.13;5.75;;;8.40;99.90;;;;;;5053238;28;20070;-65
2023/01/12 03:19:19;;;;;;;23.23;6.40;;;8.40;99.90;;;;;;5053948;28;20120;-65
2023/01/12 03:21:48;;;;;;;26.52;7.85;;;8.40;99.90;;;;;;5053279;28;20061;-65
2023/01/12 03:24:18;;;;;;;27.00;7.00;;;8.40;99.90;;;;;;5054056;28;20394;-65
2023/01/12 03:26:50;;;;;;;23.20;6.45;;;8.40;99.90;;;;;;5052700;28;20196;-65
2023/01/12 03:29:26;;;;;;;29.98;7.22;;;8.50;99.90;;;;;;5053210;28;20029;-65
2023/01/12 03:31:52;;;;;;;30.20;6.45;;;8.50;99.90;;;;;;5052625;28;20494;-65
2023/01/12 03:34:18;;;;;;;20.23;6.40;;;8.40;99.90;;;;;;5052495;28;20071;-65
2023/01/12 03:37:06;;;;;;;24.95;6.63;;;8.50;99.90;;;;;;5052744;28;20041;-65
2023/01/12 03:39:49;;;;;;;21.67;5.05;;;8.50;99.90;;;;;;5052410;28;20045;-65
2023/01/12 03:42:22;;;;;;;25.27;6.32;;;8.50;99.90;;;;;;5052759;28;20053;-65
2023/01/12 03:45:29;;;;;;;22.08;6.03;;;8.50;99.90;;;;;;5052461;28;20041;-66
2023/01/12 03:48:02;;;;;;;27.67;5.95;;;8.50;99.90;;;;;;5051920;28;20551;-66
2023/01/12 03:50:33;;;;;;;32.05;7.03;;;8.60;99.90;;;;;;5053781;28;20535;-66
2023/01/12 03:53:02;;;;;;;21.55;6.13;;;8.50;99.90;;;;;;5053798;28;20052;-66
2023/01/12 03:55:29;;;;;;;26.70;6.25;;;8.50;99.90;;;;;;5051885;28;20485;-66
2023/01/12 03:57:55;;;;;;;23.48;6.40;;;8.50;99.90;;;;;;5053869;28;20033;-66
2023/01/12 04:00:23;;;;;;;24.45;6.88;;;8.50;99.90;;;;;;5053311;28;20051;-66
2023/01/12 04:02:49;;;;;;;27.08;6.18;;;8.50;99.90;;;;;;5053214;28;20040;-66
2023/01/12 04:05:15;;;;;;;26.02;6.15;;;8.50;99.90;;;;;;5053506;28;20037;-66
2023/01/12 04:07:41;;;;;;;23.50;5.10;;;8.50;99.90;;;;;;5034723;28;20045;-66
2023/01/12 04:10:07;;;;;;;24.25;6.13;;;8.50;99.90;;;;;;5053751;28;20035;-65
2023/01/12 04:12:33;;;;;;;20.60;6.05;;;8.50;99.90;;;;;;5052918;28;20036;-65
2023/01/12 04:14:58;;;;;;;19.83;5.10;;;8.50;99.90;;;;;;5052751;28;20041;-65
2023/01/12 04:17:24;;;;;;;18.60;5.47;;;8.50;99.90;;;;;;5052063;28;20041;-65
2023/01/12 04:19:51;;;;;;;21.75;5.15;;;8.50;99.90;;;;;;5035373;28;20045;-65
2023/01/12 04:25:02;;;;;;;19.88;4.80;;;8.50;99.90;;;;;;5053368;28;20059;-64
2023/01/12 04:27:27;;;;;;;17.42;5.07;;;8.50;99.90;;;;;;5035077;28;20049;-64
2023/01/12 04:29:53;;;;;;;22.85;5.28;;;8.50;99.90;;;;;;5051224;28;20482;-64
2023/01/12 04:32:19;;;;;;;22.23;5.50;;;8.50;99.90;;;;;;5053076;28;20091;-64
2023/01/12 04:34:45;;;;;;;16.05;5.00;;;8.50;99.90;;;;;;5051299;28;20120;-64
2023/01/12 04:37:11;;;;;;;16.95;4.47;;;8.50;99.90;;;;;;5052493;28;20124;-64
2023/01/12 04:39:37;;;;;;;20.15;4.85;;;8.50;99.90;;;;;;5051930;28;20124;-64
2023/01/12 04:42:03;;;;;;;17.35;4.53;;;8.50;99.90;;;;;;5053076;28;20033;-64
2023/01/12 04:44:29;;;;;;;12.20;3.53;;;8.40;99.90;;;;;;5051026;28;20048;-64
2023/01/12 04:46:54;;;;;;;14.75;3.92;;;8.40;99.90;;;;;;5052741;28;20037;-64
2023/01/12 04:49:20;;;;;;;14.07;4.03;;;8.50;99.90;;;;;;5051094;28;20136;-64
2023/01/12 04:51:46;;;;;;;14.18;3.08;;;8.40;99.90;;;;;;5050789;28;20047;-64
2023/01/12 04:54:12;;;;;;;13.65;3.33;;;8.40;99.90;;;;;;5067897;28;20123;-64
2023/01/12 04:56:37;;;;;;;9.98;2.83;;;8.30;99.90;;;;;;5050958;28;20127;-64
2023/01/12 04:59:05;;;;;;;13.43;2.88;;;8.40;99.90;;;;;;5034632;28;20040;-64
2023/01/12 05:01:31;;;;;;;19.45;4.10;;;8.40;99.90;;;;;;5051507;28;20040;-64
2023/01/12 05:03:59;;;;;;;24.38;4.90;;;8.30;99.90;;;;;;5033880;28;20044;-64
2023/01/12 05:06:26;;;;;;;13.43;3.47;;;8.30;99.90;;;;;;5052428;28;20415;-64
2023/01/12 05:11:37;;;;;;;9.52;3.00;;;8.40;99.90;;;;;;5051522;28;20123;-64
2023/01/12 05:14:03;;;;;;;8.63;3.22;;;8.30;99.90;;;;;;5068093;28;20072;-64
2023/01/12 05:16:29;;;;;;;10.38;2.67;;;8.40;99.90;;;;;;5052266;28;20045;-64
2023/01/12 05:18:55;;;;;;;13.38;2.83;;;8.30;99.90;;;;;;5033721;28;20041;-64
2023/01/12 05:21:22;;;;;;;8.68;2.15;;;8.30;99.90;;;;;;5051255;28;20041;-64
2023/01/12 05:23:48;;;;;;;8.55;2.30;;;8.40;99.90;;;;;;5050113;28;20179;-64
2023/01/12 05:26:14;;;;;;;7.18;2.30;;;8.40;99.90;;;;;;5050002;28;20124;-64
2023/01/12 05:28:40;;;;;;;10.38;2.75;;;8.40;99.90;;;;;;5051197;28;20124;-64
2023/01/12 05:31:09;;;;;;;9.43;2.25;;;8.40;99.90;;;;;;5034007;28;20041;-64
2023/01/12 05:33:37;;;;;;;7.85;2.30;;;8.40;99.90;;;;;;5050233;28;20040;-64
2023/01/12 05:36:04;;;;;;;5.80;1.92;;;8.40;99.90;;;;;;5050986;28;20052;-64
2023/01/12 05:38:30;;;;;;;4.45;1.45;;;8.40;99.90;;;;;;5051918;28;20041;-64
2023/01/12 05:41:06;;;;;;;4.88;1.92;;;8.40;99.90;;;;;;5051087;28;20094;-65
2023/01/12 05:43:50;;;;;;;11.80;2.85;;;8.40;99.90;;;;;;5034418;28;20059;-65
2023/01/12 05:46:16;;;;;;;6.20;2.10;;;8.40;99.90;;;;;;5049639;28;20036;-64
2023/01/12 05:48:42;;;;;;;4.35;1.67;;;8.40;99.90;;;;;;5051692;28;20048;-64
2023/01/12 05:51:09;;;;;;;5.20;1.60;;;8.50;99.90;;;;;;5050622;28;20044;-64
2023/01/12 05:53:35;;;;;;;5.57;1.70;;;8.50;99.90;;;;;;5049804;28;20080;-64
2023/01/12 05:56:15;;;;;;;4.68;1.60;;;8.50;99.90;;;;;;5034137;28;20120;-64
2023/01/12 05:58:41;;;;;;;2.92;1.17;;;8.50;99.90;;;;;;5050663;28;20037;-64
2023/01/12 06:01:08;;;;;;;3.80;1.30;;;8.50;99.90;;;;;;5033343;28;20556;-64
2023/01/12 06:03:35;;;;;;;4.70;1.30;;;8.60;99.90;;;;;;5050731;28;20076;-64
2023/01/12 06:06:01;;;;;;;5.63;1.13;;;8.60;99.90;;;;;;5051410;28;20040;-64
2023/01/12 06:08:27;;;;;;;4.13;1.00;;;8.60;99.90;;;;;;5051027;28;20041;-64
2023/01/12 06:10:52;;;;;;;2.42;0.93;;;8.60;99.90;;;;;;5051850;28;20044;-65
2023/01/12 06:16:04;;;;;;;3.50;1.20;;;8.70;99.90;;;;;;5050090;28;20045;-65
2023/01/12 06:18:35;;;;;;;4.40;1.30;;;8.70;99.90;;;;;;5050665;28;20025;-64
2023/01/12 06:21:02;;;;;;;4.97;1.50;;;8.70;99.90;;;;;;5050352;28;20119;-64
2023/01/12 06:23:28;;;;;;;11.10;2.63;;;8.70;99.90;;;;;;5050971;28;20508;-64
2023/01/12 06:25:54;;;;;;;7.38;2.40;;;8.70;99.90;;;;;;5050166;28;20056;-64
2023/01/12 06:28:20;;;;;;;6.90;1.83;;;8.80;99.90;;;;;;5049418;28;20041;-65
2023/01/12 06:30:57;;;;;;;9.35;2.40;;;8.80;99.90;;;;;;5033551;28;20079;-65
2023/01/12 06:33:24;;;;;;;11.02;3.03;;;8.90;99.90;;;;;;5050106;28;20045;-64
2023/01/12 06:35:50;;;;;;;12.43;2.90;;;8.90;99.90;;;;;;5050894;28;20040;-64
2023/01/12 06:38:15;;;;;;;17.02;3.03;;;9.00;99.90;;;;;;5055209;28;20082;-64
2023/01/12 06:40:41;;;;;;;18.30;4.60;;;9.10;99.90;;;;;;5037033;28;20437;-63
2023/01/12 06:43:07;;;;;;;19.20;4.72;;;9.20;99.90;;;;;;5053451;28;20056;-63
2023/01/12 06:45:32;;;;;;;19.58;4.90;;;9.20;99.90;;;;;;5054033;28;20041;-63
2023/01/12 06:47:58;;;;;;;25.10;6.45;;;9.30;99.90;;;;;;5053721;28;20049;-63
2023/01/12 06:50:24;;;;;;;31.08;7.93;;;9.50;99.90;;;;;;5053382;28;20052;-64
2023/01/12 06:52:50;;;;;;;22.98;5.78;;;9.60;99.90;;;;;;5053627;28;20032;-63
2023/01/12 06:55:16;;;;;;;20.58;6.85;;;9.60;99.90;;;;;;5053502;28;20514;-63
2023/01/12 06:57:42;;;;;;;19.58;6.05;;;9.70;99.90;;;;;;5052997;28;20110;-63
2023/01/12 07:00:11;;;;;;;21.75;7.15;;;9.80;99.90;;;;;;5053710;28;20041;-63
2023/01/12 07:02:37;;;;;;;29.35;6.50;;;9.90;99.90;;;;;;5053270;28;20052;-64
2023/01/12 07:05:04;;;;;;;22.08;5.50;;;10.00;99.90;;;;;;5053423;28;20049;-64
2023/01/12 07:07:29;;;;;;;19.92;5.70;;;10.00;99.90;;;;;;5035861;28;20037;-64
2023/01/12 07:09:55;;;;;;;28.05;6.70;;;10.00;99.90;;;;;;5054219;28;20039;-65
2023/01/12 07:12:21;;;;;;;16.52;4.07;;;10.00;99.90;;;;;;5054000;28;20120;-64
2023/01/12 07:14:47;;;;;;;15.23;4.50;;;10.10;99.90;;;;;;5053475;28;20044;-65
2023/01/12 07:17:12;;;;;;;18.10;5.00;;;10.10;99.90;;;;;;5036704;28;20482;-65
2023/01/12 07:19:38;;;;;;;17.85;4.63;;;10.10;99.90;;;;;;5052278;28;20037;-65
2023/01/12 07:22:04;;;;;;;18.73;5.28;;;10.10;99.90;;;;;;5053025;28;20045;-65
2023/01/12 07:24:29;;;;;;;19.67;6.00;;;10.10;99.90;;;;;;5052961;28;20053;-65
2023/01/12 07:26:57;;;;;;;18.58;5.57;;;10.10;99.90;;;;;;5052837;28;20132;-65
2023/01/12 07:29:24;;;;;;;22.13;6.35;;;10.10;99.90;;;;;;5050583;28;20081;-66
2023/01/12 07:31:49;;;;;;;18.88;5.55;;;10.10;99.90;;;;;;5050075;28;20045;-65
2023/01/12 07:34:15;;;;;;;28.83;6.75;;;10.10;99.90;;;;;;5033358;28;20496;-66
2023/01/12 07:36:41;;;;;;;17.38;4.43;;;10.20;99.90;;;;;;5051285;28;20135;-66
2023/01/12 07:39:08;;;;;;;23.88;4.78;;;10.20;99.90;;;;;;5050915;28;20055;-66
2023/01/12 07:44:18;;;;;;;18.25;5.05;;;10.20;99.90;;;;;;5050963;28;20041;-66
2023/01/12 07:46:44;;;;;;;19.65;4.70;;;10.30;99.90;;;;;;5046657;28;20314;-65
2023/01/12 07:49:10;;;;;;;24.77;6.03;;;10.20;99.90;;;;;;5050749;28;20041;-65
2023/01/12 07:51:35;;;;;;;28.38;6.38;;;10.30;99.90;;;;;;5065862;28;20045;-66
2023/01/12 07:54:01;;;;;;;20.33;4.93;;;10.30;99.90;;;;;;5050675;28;20072;-66
2023/01/12 07:56:26;;;;;;;22.23;4.82;;;10.30;99.90;;;;;;5051216;28;20041;-66
2023/01/12 07:58:52;;;;;;;18.08;5.28;;;10.30;99.90;;;;;;5050720;28;20063;-65
2023/01/12 08:01:18;;;;;;;23.52;6.32;;;10.30;99.90;;;;;;5045270;28;20612;-65
2023/01/12 08:03:43;;;;;;;19.63;4.07;;;10.40;99.90;;;;;;5040509;28;20060;-65
2023/01/12 08:06:09;;;;;;;19.80;6.30;;;10.30;99.90;;;;;;5039565;28;20041;-66
2023/01/12 08:08:35;;;;;;;21.38;4.72;;;10.30;99.90;;;;;;5049542;28;20033;-66
2023/01/12 08:11:06;;;;;;;16.98;4.78;;;10.40;99.90;;;;;;5050362;28;20468;-66
2023/01/12 08:13:33;;;;;;;20.05;4.38;;;10.40;99.90;;;;;;5031541;28;20203;-66
2023/01/12 08:16:05;;;;;;;18.88;3.85;;;10.40;99.90;;;;;;5032458;28;20025;-65
2023/01/12 08:18:49;;;;;;;18.23;4.20;;;10.40;99.90;;;;;;5050641;28;20103;-65
2023/01/12 08:21:20;;;;;;;21.33;4.20;;;10.50;99.90;;;;;;5031111;28;20045;-65
2023/01/12 08:23:50;;;;;;;14.90;4.00;;;10.50;99.90;;;;;;5048780;28;20092;-66
2023/01/12 08:26:22;;;;;;;15.27;5.10;;;10.40;99.90;;;;;;5048695;28;20095;-66
2023/01/12 08:29:15;;;;;;;17.15;5.30;;;10.40;99.90;;;;;;5049333;28;20032;-65
2023/01/12 08:31:41;;;;;;;20.15;4.88;;;10.50;99.90;;;;;;5038541;28;20049;-66
2023/01/12 08:34:08;;;;;;;16.52;4.75;;;10.50;99.90;;;;;;5032264;28;20527;-65
2023/01/12 08:36:35;;;;;;;17.23;5.53;;;10.50;99.90;;;;;;5048108;28;20425;-66
2023/01/12 08:39:03;;;;;;;14.60;3.97;;;10.50;99.90;;;;;;5050445;28;20043;-65
2023/01/12 08:41:32;;;;;;;18.73;4.18;;;10.50;99.90;;;;;;5049695;28;20052;-66
2023/01/12 08:44:03;;;;;;;16.50;4.72;;;10.50;99.90;;;;;;5049471;28;20471;-66
2023/01/12 08:46:34;;;;;;;17.97;4.10;;;10.50;99.90;;;;;;5047887;28;20128;-66
2023/01/12 08:49:02;;;;;;;13.82;4.07;;;10.50;99.90;;;;;;5049013;28;20374;-65
2023/01/12 08:51:28;;;;;;;11.15;3.78;;;10.50;99.90;;;;;;5047784;28;20045;-66
2023/01/12 09:12:22;;;;;;;16.38;4.07;;;10.50;99.90;;;;;;5042693;28;20036;-65
2023/01/12 09:14:47;;;;;;;19.73;6.30;;;10.60;99.90;;;;;;5052077;28;20036;-65
2023/01/12 09:17:13;;;;;;;15.63;4.05;;;10.50;99.90;;;;;;5066589;28;20482;-65
2023/01/12 09:19:39;;;;;;;20.25;4.65;;;10.60;99.90;;;;;;5051613;28;20037;-65
2023/01/12 09:22:05;;;;;;;14.85;3.78;;;10.70;99.90;;;;;;5051879;28;20041;-65
2023/01/12 09:24:30;;;;;;;14.27;3.70;;;10.60;99.90;;;;;;5043094;28;20049;-65
2023/01/12 09:26:56;;;;;;;18.13;4.35;;;10.70;99.90;;;;;;5052052;28;20073;-65
2023/01/12 09:29:23;;;;;;;16.13;3.78;;;10.70;99.90;;;;;;5050312;28;20045;-64
2023/01/12 09:31:48;;;;;;;17.00;4.03;;;10.70;99.90;;;;;;5051539;28;20551;-64
2023/01/12 09:34:14;;;;;;;13.90;4.43;;;10.70;99.90;;;;;;5050020;28;20410;-64
2023/01/12 09:36:41;;;;;;;17.73;3.63;;;10.70;99.90;;;;;;5049920;28;20036;-64
2023/01/12 09:39:07;;;;;;;15.57;3.35;;;10.70;99.90;;;;;;5051553;28;20108;-65
2023/01/12 10:24:13;;;;;;;16.42;4.22;;;10.80;99.90;;;;;;5042945;28;20036;-65
2023/01/12 10:26:43;;;;;;;12.75;3.75;;;10.80;99.90;;;;;;5038567;28;20068;-65
2023/01/12 10:29:10;;;;;;;14.40;4.18;;;10.80;99.90;;;;;;5054634;28;20033;-65
2023/01/12 10:31:36;;;;;;;12.57;3.97;;;10.90;99.90;;;;;;5055361;28;20478;-65
2023/01/12 10:34:07;;;;;;;18.65;4.88;;;10.90;99.90;;;;;;5055372;28;20079;-65
2023/01/12 10:36:36;;;;;;;17.65;4.38;;;10.90;99.90;;;;;;5052728;28;20448;-65
2023/01/12 10:39:04;;;;;;;18.80;4.32;;;10.90;99.90;;;;;;5055361;28;20076;-66
2023/01/12 10:41:34;;;;;;;21.85;5.15;;;10.90;99.90;;;;;;5054245;28;20087;-66
2023/01/12 10:44:14;;;;;;;19.83;4.78;;;10.90;99.90;;;;;;5039613;28;20478;-67
2023/01/12 10:46:40;;;;;;;13.98;4.00;;;10.90;99.90;;;;;;5034989;28;20121;-66
2023/01/12 10:49:20;;;;;;;13.57;2.85;;;10.90;99.90;;;;;;5046774;28;20178;-64
2023/01/12 10:52:08;;;;;;;14.18;3.28;;;10.90;99.90;;;;;;5053661;28;20088;-66
2023/01/12 10:54:37;;;;;;;12.63;3.53;;;10.90;99.90;;;;;;5053073;28;20118;-65
2023/01/12 10:57:15;;;;;;;16.27;4.35;;;10.90;99.90;;;;;;5054553;28;20510;-66
2023/01/12 10:59:53;;;;;;;10.23;3.13;;;10.90;99.90;;;;;;5053340;28;20048;-65
2023/01/12 11:02:19;;;;;;;10.27;3.58;;;10.90;99.90;;;;;;5041678;28;20072;-66
2023/01/12 11:04:51;;;;;;;10.73;2.95;;;10.80;99.90;;;;;;5051555;28;20489;-65
2023/01/12 11:07:27;;;;;;;20.25;4.30;;;10.90;99.90;;;;;;5051473;28;20126;-64
2023/01/12 11:09:56;;;;;;;15.63;3.42;;;10.80;99.90;;;;;;5050462;28;20941;-64
2023/01/12 11:12:22;;;;;;;16.63;4.75;;;10.80;99.90;;;;;;5045354;28;20813;-64
2023/01/12 11:15:11;;;;;;;13.98;4.70;;;10.80;99.90;;;;;;5049940;28;20074;-65
2023/01/12 11:18:06;;;;;;;15.80;3.90;;;10.90;99.90;;;;;;5049826;28;20390;-65
2023/01/12 11:20:36;;;;;;;18.40;4.72;;;10.90;99.90;;;;;;5040977;28;20045;-65
2023/01/12 11:23:09;;;;;;;13.65;4.13;;;10.90;99.90;;;;;;5049402;28;20067;-66
2023/01/12 11:25:42;;;;;;;14.52;4.32;;;10.90;99.90;;;;;;5051082;28;20160;-65
2023/01/12 11:28:26;;;;;;;15.07;5.18;;;10.90;99.90;;;;;;5033203;28;20087;-66
2023/01/12 11:31:12;;;;;;;15.90;3.58;;;11.00;99.90;;;;;;5051495;28;20076;-65
2023/01/12 11:33:45;;;;;;;25.33;4.65;;;11.00;99.90;;;;;;5049936;28;20052;-65
2023/01/12 11:36:33;;;;;;;19.02;5.15;;;11.00;99.90;;;;;;5048439;28;20051;-65
2023/01/12 11:39:11;;;;;;;15.20;4.20;;;11.10;99.90;;;;;;5051101;28;20045;-65
2023/01/12 11:43:47;;;;;;;18.50;4.18;;;11.10;99.90;;;;;;5050859;28;20041;-65
2023/01/12 11:44:56;;;;;;;16.02;3.72;;;11.10;99.90;;;;;;5054073;28;20102;-66
2023/01/12 11:47:28;;;;;;;18.42;4.55;;;11.20;99.90;;;;;;5046615;28;20056;-66
2023/01/12 11:50:17;;;;;;;12.73;3.58;;;11.20;99.90;;;;;;5048634;28;20033;-65
2023/01/12 11:52:44;;;;;;;13.05;3.47;;;11.30;99.90;;;;;;5048863;28;20510;-66
2023/01/12 11:55:15;;;;;;;10.90;2.67;;;11.40;99.90;;;;;;5051166;28;20033;-65
2023/01/12 11:57:50;;;;;;;13.35;3.58;;;11.40;99.90;;;;;;5048943;28;20041;-66
2023/01/12 12:00:25;;;;;;;;;;;11.40;99.90;;;;;;5048810;28;20132;-65
2023/01/12 12:03:16;;;;;;;15.20;3.17;;;11.40;99.90;;;;;;5041741;28;19927;-66
2023/01/12 12:05:59;;;;;;;15.73;4.72;;;11.30;99.90;;;;;;5050100;28;20049;-65
2023/01/12 12:08:40;;;;;;;13.93;4.07;;;11.30;99.90;;;;;;5058485;28;20051;-65
2023/01/12 12:11:49;;;;;;;15.13;3.85;;;11.30;99.90;;;;;;5049110;28;20037;-68
2023/01/12 12:14:27;;;;;;;14.02;3.80;;;11.30;99.90;;;;;;5029247;28;20065;-65
2023/01/12 12:17:15;;;;;;;12.60;3.40;;;11.30;99.90;;;;;;5049979;28;20063;-66
2023/01/12 12:20:06;;;;;;;13.02;3.67;;;11.30;99.90;;;;;;5052030;28;20107;-65
2023/01/12 12:23:05;;;;;;;14.45;3.92;;;11.30;99.90;;;;;;5035257;28;20127;-65
2023/01/12 12:25:43;;;;;;;17.27;4.35;;;11.30;99.90;;;;;;5031964;28;20053;-65
2023/01/12 12:28:21;;;;;;;18.00;3.75;;;11.30;99.90;;;;;;5049149;28;20037;-65
2023/01/12 12:31:05;;;;;;;13.95;2.85;;;11.30;99.90;;;;;;5041549;28;20080;-65
2023/01/12 12:33:54;;;;;;;12.15;4.70;;;11.20;99.90;;;;;;5051400;28;20044;-65
2023/01/12 12:36:25;;;;;;;20.90;4.63;;;11.20;99.90;;;;;;5051511;28;20131;-65
2023/01/12 12:39:23;;;;;;;18.88;4.70;;;11.20;99.90;;;;;;5051299;28;20811;-65
2023/01/12 12:45:17;;;;;;;21.95;4.15;;;11.10;99.90;;;;;;5065787;28;20045;-65
2023/01/12 12:48:02;;;;;;;21.48;4.40;;;11.10;99.90;;;;;;5050996;28;20045;-66
2023/01/12 12:50:43;;;;;;;15.02;3.78;;;11.00;99.90;;;;;;5052388;28;20099;-65
2023/01/12 12:53:32;;;;;;;20.20;4.88;;;11.00;99.90;;;;;;5032612;28;20041;-66
2023/01/12 12:56:13;;;;;;;17.33;4.78;;;11.00;99.90;;;;;;5031445;28;20034;-66
2023/01/12 12:58:41;;;;;;;16.95;4.25;;;11.00;99.90;;;;;;5049718;28;20076;-66
2023/01/12 13:01:22;;;;;;;17.00;4.25;;;11.00;99.90;;;;;;5052770;28;20040;-65
2023/01/12 13:03:51;;;;;;;13.48;3.70;;;11.00;99.90;;;;;;5050342;28;20040;-65
2023/01/12 13:06:27;;;;;;;21.75;5.15;;;11.00;99.90;;;;;;5050890;28;20380;-66
2023/01/12 13:08:59;;;;;;;13.77;3.53;;;11.00;99.90;;;;;;5043645;28;20090;-65
2023/01/12 13:11:54;;;;;;;16.48;4.30;;;11.00;99.90;;;;;;5051117;28;20036;-65
2023/01/12 13:14:33;;;;;;;15.63;3.95;;;11.00;99.90;;;;;;5050043;28;20041;-66
2023/01/12 13:17:17;;;;;;;17.85;5.30;;;11.00;99.90;;;;;;5051492;28;20037;-65
2023/01/12 13:20:03;;;;;;;16.77;4.20;;;11.00;99.90;;;;;;5051135;28;20045;-65
2023/01/12 13:22:42;;;;;;;19.75;4.45;;;11.00;99.90;;;;;;5050995;28;20040;-65
2023/01/12 13:25:23;;;;;;;12.52;4.10;;;11.00;99.90;;;;;;5051268;28;20048;-65
2023/01/12 13:27:54;;;;;;;21.70;4.90;;;11.00;99.90;;;;;;5042148;28;20050;-65
2023/01/12 13:30:34;;;;;;;16.40;4.60;;;11.10;99.90;;;;;;5033134;28;20033;-65
2023/01/12 13:33:23;;;;;;;17.40;5.35;;;11.00;99.90;;;;;;5030828;28;20056;-65
2023/01/12 13:35:48;;;;;;;19.58;5.45;;;11.10;99.90;;;;;;5046821;28;20367;-65
2023/01/12 13:38:32;;;;;;;18.30;4.97;;;11.00;99.90;;;;;;5049759;28;20059;-64
2023/01/12 13:43:13;;;;;;;14.68;3.80;;;11.00;99.90;;;;;;5051670;28;20041;-64
2023/01/12 13:44:04;;;;;;;20.65;5.15;;;11.00;99.90;;;;;;5051555;28;20148;-64
2023/01/12 13:46:36;;;;;;;16.70;4.22;;;11.00;99.90;;;;;;5048808;28;20102;-64
2023/01/12 13:49:02;;;;;;;15.82;3.90;;;11.00;99.90;;;;;;5049693;28;20123;-64
2023/01/12 13:51:48;;;;;;;17.58;4.53;;;11.00;99.90;;;;;;5049346;28;20087;-63
2023/01/12 13:54:15;;;;;;;26.13;5.15;;;11.10;99.90;;;;;;5050234;28;20049;-65
2023/01/12 13:56:41;;;;;;;20.02;5.13;;;11.00;99.90;;;;;;5050539;28;20032;-65
2023/01/12 13:59:16;;;;;;;17.50;4.30;;;11.10;99.90;;;;;;5049661;28;20119;-64
2023/01/12 14:01:44;;;;;;;23.52;5.40;;;11.00;99.90;;;;;;5050014;28;20043;-65
2023/01/12 14:04:14;;;;;;;20.08;5.18;;;11.00;99.90;;;;;;5050232;28;20045;-64
2023/01/12 14:07:11;;;;;;;21.80;5.28;;;11.00;99.90;;;;;;5049891;28;20041;-65
2023/01/12 14:09:51;;;;;;;16.40;5.05;;;11.00;99.90;;;;;;5048038;28;20080;-64
2023/01/12 14:12:52;;;;;;;19.27;4.35;;;11.00;99.90;;;;;;5051734;28;20117;-64
2023/01/12 14:18:23;;;;;;;16.95;4.45;;;11.00;99.90;;;;;;5050423;28;20057;-65
2023/01/12 14:20:54;;;;;;;20.17;4.97;;;11.00;99.90;;;;;;5049638;28;20045;-65
2023/01/12 14:23:29;;;;;;;14.43;4.13;;;11.00;99.90;;;;;;5050115;28;20044;-65
2023/01/12 14:26:16;;;;;;;17.95;5.13;;;11.00;99.90;;;;;;5049809;28;20529;-65
2023/01/12 14:28:46;;;;;;;20.95;5.10;;;11.00;99.90;;;;;;5049510;28;20120;-65
2023/01/12 14:31:25;;;;;;;14.77;4.97;;;10.90;99.90;;;;;;5049977;28;20084;-65
2023/01/12 14:33:56;;;;;;;16.65;4.07;;;10.90;99.90;;;;;;5043534;28;20029;-66
2023/01/12 14:36:27;;;;;;;15.43;4.25;;;10.90;99.90;;;;;;5046984;28;20041;-65